sensor_id;sensor_type;location;lat;lon;timestamp;P1;durP1;ratioP1;P2;durP2;ratioP2
31210;SDS011;17836;50.948;3.946;2023-06-14T00:01:57;8.47;;;6.00;;
31210;SDS011;17836;50.948;3.946;2023-06-14T00:04:23;9.55;;;6.60;;
31210;SDS011;17836;50.948;3.946;2023-06-14T00:06:50;8.13;;;6.82;;
31210;SDS011;17836;50.948;3.946;2023-06-14T00:09:16;7.70;;;6.57;;
31210;SDS011;17836;50.948;3.946;2023-06-14T00:11:43;12.98;;;6.13;;
31210;SDS011;17836;50.948;3.946;2023-06-14T00:14:09;8.02;;;6.30;;
31210;SDS011;17836;50.948;3.946;2023-06-14T00:16:34;7.78;;;5.38;;
31210;SDS011;17836;50.948;3.946;2023-06-14T00:19:00;7.55;;;6.78;;
31210;SDS011;17836;50.948;3.946;2023-06-14T00:21:28;5.97;;;5.38;;
31210;SDS011;17836;50.948;3.946;2023-06-14T00:23:54;7.10;;;6.40;;
31210;SDS011;17836;50.948;3.946;2023-06-14T00:26:20;6.43;;;5.78;;
31210;SDS011;17836;50.948;3.946;2023-06-14T00:28:45;6.88;;;6.18;;
31210;SDS011;17836;50.948;3.946;2023-06-14T00:31:12;10.90;;;6.43;;
31210;SDS011;17836;50.948;3.946;2023-06-14T00:33:39;10.23;;;6.20;;
31210;SDS011;17836;50.948;3.946;2023-06-14T00:36:05;12.80;;;6.10;;
31210;SDS011;17836;50.948;3.946;2023-06-14T00:38:30;9.03;;;6.13;;
31210;SDS011;17836;50.948;3.946;2023-06-14T00:40:55;5.70;;;5.25;;
31210;SDS011;17836;50.948;3.946;2023-06-14T00:43:20;6.23;;;5.63;;
31210;SDS011;17836;50.948;3.946;2023-06-14T00:45:46;8.03;;;6.17;;
31210;SDS011;17836;50.948;3.946;2023-06-14T00:48:11;6.50;;;5.72;;
31210;SDS011;17836;50.948;3.946;2023-06-14T00:50:37;9.27;;;6.72;;
31210;SDS011;17836;50.948;3.946;2023-06-14T00:53:03;6.47;;;5.85;;
31210;SDS011;17836;50.948;3.946;2023-06-14T00:55:29;9.73;;;6.68;;
31210;SDS011;17836;50.948;3.946;2023-06-14T00:57:55;9.32;;;6.40;;
31210;SDS011;17836;50.948;3.946;2023-06-14T01:00:21;8.35;;;7.15;;
31210;SDS011;17836;50.948;3.946;2023-06-14T01:02:46;7.07;;;6.30;;
31210;SDS011;17836;50.948;3.946;2023-06-14T01:05:11;8.43;;;6.88;;
31210;SDS011;17836;50.948;3.946;2023-06-14T01:07:42;8.15;;;7.00;;
31210;SDS011;17836;50.948;3.946;2023-06-14T01:10:20;8.55;;;7.43;;
31210;SDS011;17836;50.948;3.946;2023-06-14T01:15:18;11.15;;;7.43;;
31210;SDS011;17836;50.948;3.946;2023-06-14T01:17:45;8.30;;;6.78;;
31210;SDS011;17836;50.948;3.946;2023-06-14T01:20:11;7.65;;;6.72;;
31210;SDS011;17836;50.948;3.946;2023-06-14T01:22:47;9.98;;;8.10;;
31210;SDS011;17836;50.948;3.946;2023-06-14T01:25:12;8.35;;;7.63;;
31210;SDS011;17836;50.948;3.946;2023-06-14T01:27:38;8.32;;;7.63;;
31210;SDS011;17836;50.948;3.946;2023-06-14T01:30:06;9.37;;;7.97;;
31210;SDS011;17836;50.948;3.946;2023-06-14T01:32:32;7.53;;;6.93;;
31210;SDS011;17836;50.948;3.946;2023-06-14T01:34:57;9.77;;;7.25;;
31210;SDS011;17836;50.948;3.946;2023-06-14T01:37:22;8.03;;;7.27;;
31210;SDS011;17836;50.948;3.946;2023-06-14T01:39:48;8.10;;;7.40;;
31210;SDS011;17836;50.948;3.946;2023-06-14T01:42:14;10.88;;;7.60;;
31210;SDS011;17836;50.948;3.946;2023-06-14T01:44:41;9.05;;;7.60;;
31210;SDS011;17836;50.948;3.946;2023-06-14T01:47:07;15.25;;;8.05;;
31210;SDS011;17836;50.948;3.946;2023-06-14T01:49:33;8.32;;;7.57;;
31210;SDS011;17836;50.948;3.946;2023-06-14T01:52:02;11.52;;;8.00;;
31210;SDS011;17836;50.948;3.946;2023-06-14T01:54:27;7.90;;;7.18;;
31210;SDS011;17836;50.948;3.946;2023-06-14T01:56:55;11.07;;;8.00;;
31210;SDS011;17836;50.948;3.946;2023-06-14T01:59:21;9.27;;;8.30;;
31210;SDS011;17836;50.948;3.946;2023-06-14T02:01:46;9.18;;;8.40;;
31210;SDS011;17836;50.948;3.946;2023-06-14T02:04:11;9.35;;;8.55;;
31210;SDS011;17836;50.948;3.946;2023-06-14T02:06:37;8.43;;;7.73;;
31210;SDS011;17836;50.948;3.946;2023-06-14T02:09:02;8.73;;;7.93;;
31210;SDS011;17836;50.948;3.946;2023-06-14T02:11:28;9.10;;;8.20;;
31210;SDS011;17836;50.948;3.946;2023-06-14T02:13:53;8.90;;;8.00;;
31210;SDS011;17836;50.948;3.946;2023-06-14T02:16:20;9.90;;;8.70;;
31210;SDS011;17836;50.948;3.946;2023-06-14T02:18:45;9.38;;;8.20;;
31210;SDS011;17836;50.948;3.946;2023-06-14T02:21:10;9.23;;;8.33;;
31210;SDS011;17836;50.948;3.946;2023-06-14T02:23:38;9.38;;;8.45;;
31210;SDS011;17836;50.948;3.946;2023-06-14T02:26:03;9.50;;;8.60;;
31210;SDS011;17836;50.948;3.946;2023-06-14T02:28:29;8.93;;;8.05;;
31210;SDS011;17836;50.948;3.946;2023-06-14T02:30:56;8.98;;;8.15;;
31210;SDS011;17836;50.948;3.946;2023-06-14T02:33:22;8.98;;;8.18;;
31210;SDS011;17836;50.948;3.946;2023-06-14T02:35:47;9.02;;;8.13;;
31210;SDS011;17836;50.948;3.946;2023-06-14T02:38:12;10.27;;;8.67;;
31210;SDS011;17836;50.948;3.946;2023-06-14T02:40:38;9.57;;;8.63;;
31210;SDS011;17836;50.948;3.946;2023-06-14T02:43:03;9.03;;;8.20;;
31210;SDS011;17836;50.948;3.946;2023-06-14T02:45:33;9.75;;;8.35;;
31210;SDS011;17836;50.948;3.946;2023-06-14T02:48:00;10.88;;;9.77;;
31210;SDS011;17836;50.948;3.946;2023-06-14T02:50:25;10.05;;;9.05;;
31210;SDS011;17836;50.948;3.946;2023-06-14T02:52:53;10.57;;;8.30;;
31210;SDS011;17836;50.948;3.946;2023-06-14T02:55:23;10.18;;;8.40;;
31210;SDS011;17836;50.948;3.946;2023-06-14T02:57:48;10.50;;;9.50;;
31210;SDS011;17836;50.948;3.946;2023-06-14T03:00:14;9.85;;;9.02;;
31210;SDS011;17836;50.948;3.946;2023-06-14T03:02:39;10.95;;;8.98;;
31210;SDS011;17836;50.948;3.946;2023-06-14T03:05:05;10.23;;;9.17;;
31210;SDS011;17836;50.948;3.946;2023-06-14T03:07:32;11.20;;;8.82;;
31210;SDS011;17836;50.948;3.946;2023-06-14T03:09:57;11.55;;;9.98;;
31210;SDS011;17836;50.948;3.946;2023-06-14T03:12:23;10.48;;;9.45;;
31210;SDS011;17836;50.948;3.946;2023-06-14T03:14:48;9.77;;;8.88;;
31210;SDS011;17836;50.948;3.946;2023-06-14T03:17:15;10.52;;;9.52;;
31210;SDS011;17836;50.948;3.946;2023-06-14T03:19:44;12.48;;;9.40;;
31210;SDS011;17836;50.948;3.946;2023-06-14T03:22:09;12.17;;;10.53;;
31210;SDS011;17836;50.948;3.946;2023-06-14T03:24:36;10.50;;;9.60;;
31210;SDS011;17836;50.948;3.946;2023-06-14T03:27:02;10.50;;;9.60;;
31210;SDS011;17836;50.948;3.946;2023-06-14T03:29:27;16.55;;;10.05;;
31210;SDS011;17836;50.948;3.946;2023-06-14T03:32:02;9.85;;;8.90;;
31210;SDS011;17836;50.948;3.946;2023-06-14T03:34:28;11.10;;;9.70;;
31210;SDS011;17836;50.948;3.946;2023-06-14T03:36:54;10.43;;;9.35;;
31210;SDS011;17836;50.948;3.946;2023-06-14T03:39:19;16.92;;;10.15;;
31210;SDS011;17836;50.948;3.946;2023-06-14T03:41:47;10.43;;;9.48;;
31210;SDS011;17836;50.948;3.946;2023-06-14T03:44:14;10.48;;;9.38;;
31210;SDS011;17836;50.948;3.946;2023-06-14T03:46:39;10.38;;;8.95;;
31210;SDS011;17836;50.948;3.946;2023-06-14T03:49:04;11.15;;;9.13;;
31210;SDS011;17836;50.948;3.946;2023-06-14T03:51:29;10.00;;;9.07;;
31210;SDS011;17836;50.948;3.946;2023-06-14T03:54:02;13.00;;;9.07;;
31210;SDS011;17836;50.948;3.946;2023-06-14T03:56:27;10.27;;;9.35;;
31210;SDS011;17836;50.948;3.946;2023-06-14T03:58:52;13.57;;;9.75;;
31210;SDS011;17836;50.948;3.946;2023-06-14T04:01:18;16.08;;;9.73;;
31210;SDS011;17836;50.948;3.946;2023-06-14T04:03:43;13.43;;;9.10;;
31210;SDS011;17836;50.948;3.946;2023-06-14T04:06:08;11.60;;;9.10;;
31210;SDS011;17836;50.948;3.946;2023-06-14T04:08:37;11.02;;;9.93;;
31210;SDS011;17836;50.948;3.946;2023-06-14T04:11:04;15.07;;;9.67;;
31210;SDS011;17836;50.948;3.946;2023-06-14T04:13:30;11.17;;;8.43;;
31210;SDS011;17836;50.948;3.946;2023-06-14T04:15:55;17.03;;;9.80;;
31210;SDS011;17836;50.948;3.946;2023-06-14T04:18:21;15.05;;;9.85;;
31210;SDS011;17836;50.948;3.946;2023-06-14T04:20:47;13.70;;;9.80;;
31210;SDS011;17836;50.948;3.946;2023-06-14T04:23:18;10.50;;;9.40;;
31210;SDS011;17836;50.948;3.946;2023-06-14T04:25:44;16.35;;;9.18;;
31210;SDS011;17836;50.948;3.946;2023-06-14T04:28:12;13.45;;;9.07;;
31210;SDS011;17836;50.948;3.946;2023-06-14T04:30:40;21.00;;;8.88;;
31210;SDS011;17836;50.948;3.946;2023-06-14T04:33:06;11.50;;;9.65;;
31210;SDS011;17836;50.948;3.946;2023-06-14T04:35:31;12.77;;;8.80;;
31210;SDS011;17836;50.948;3.946;2023-06-14T04:38:01;13.48;;;8.52;;
31210;SDS011;17836;50.948;3.946;2023-06-14T04:40:26;9.23;;;8.38;;
31210;SDS011;17836;50.948;3.946;2023-06-14T04:42:54;10.85;;;8.25;;
31210;SDS011;17836;50.948;3.946;2023-06-14T04:45:19;8.67;;;7.80;;
31210;SDS011;17836;50.948;3.946;2023-06-14T04:47:44;8.63;;;7.73;;
31210;SDS011;17836;50.948;3.946;2023-06-14T04:50:12;13.07;;;8.57;;
31210;SDS011;17836;50.948;3.946;2023-06-14T04:52:38;8.70;;;7.78;;
31210;SDS011;17836;50.948;3.946;2023-06-14T04:55:03;12.80;;;8.47;;
31210;SDS011;17836;50.948;3.946;2023-06-14T04:57:28;11.73;;;8.02;;
31210;SDS011;17836;50.948;3.946;2023-06-14T04:59:54;12.18;;;7.75;;
31210;SDS011;17836;50.948;3.946;2023-06-14T05:02:22;11.15;;;7.60;;
31210;SDS011;17836;50.948;3.946;2023-06-14T05:04:48;9.07;;;7.43;;
31210;SDS011;17836;50.948;3.946;2023-06-14T05:07:13;12.60;;;7.60;;
31210;SDS011;17836;50.948;3.946;2023-06-14T05:09:39;7.50;;;6.65;;
31210;SDS011;17836;50.948;3.946;2023-06-14T05:12:07;10.70;;;6.95;;
31210;SDS011;17836;50.948;3.946;2023-06-14T05:14:36;8.88;;;6.50;;
31210;SDS011;17836;50.948;3.946;2023-06-14T05:17:01;10.63;;;6.15;;
31210;SDS011;17836;50.948;3.946;2023-06-14T05:19:27;9.40;;;6.13;;
31210;SDS011;17836;50.948;3.946;2023-06-14T05:21:53;10.63;;;6.57;;
31210;SDS011;17836;50.948;3.946;2023-06-14T05:24:18;10.60;;;5.28;;
31210;SDS011;17836;50.948;3.946;2023-06-14T05:26:44;6.65;;;5.20;;
31210;SDS011;17836;50.948;3.946;2023-06-14T05:29:11;7.78;;;5.43;;
31210;SDS011;17836;50.948;3.946;2023-06-14T05:31:37;6.15;;;5.53;;
31210;SDS011;17836;50.948;3.946;2023-06-14T05:34:02;9.77;;;5.25;;
31210;SDS011;17836;50.948;3.946;2023-06-14T05:36:28;8.07;;;5.60;;
31210;SDS011;17836;50.948;3.946;2023-06-14T05:38:53;5.90;;;5.30;;
31210;SDS011;17836;50.948;3.946;2023-06-14T05:41:30;7.53;;;4.90;;
31210;SDS011;17836;50.948;3.946;2023-06-14T05:43:55;6.28;;;5.40;;
31210;SDS011;17836;50.948;3.946;2023-06-14T05:46:21;9.05;;;5.05;;
31210;SDS011;17836;50.948;3.946;2023-06-14T05:48:53;5.60;;;5.10;;
31210;SDS011;17836;50.948;3.946;2023-06-14T05:51:19;9.40;;;4.72;;
31210;SDS011;17836;50.948;3.946;2023-06-14T05:53:45;6.03;;;5.43;;
31210;SDS011;17836;50.948;3.946;2023-06-14T05:56:11;10.90;;;5.03;;
31210;SDS011;17836;50.948;3.946;2023-06-14T05:58:36;10.37;;;5.33;;
31210;SDS011;17836;50.948;3.946;2023-06-14T06:01:01;8.27;;;5.27;;
31210;SDS011;17836;50.948;3.946;2023-06-14T06:03:27;9.80;;;6.38;;
31210;SDS011;17836;50.948;3.946;2023-06-14T06:05:54;5.57;;;4.47;;
31210;SDS011;17836;50.948;3.946;2023-06-14T06:08:19;6.18;;;5.55;;
31210;SDS011;17836;50.948;3.946;2023-06-14T06:10:45;5.28;;;4.72;;
31210;SDS011;17836;50.948;3.946;2023-06-14T06:13:11;5.20;;;4.37;;
31210;SDS011;17836;50.948;3.946;2023-06-14T06:15:36;8.37;;;4.57;;
31210;SDS011;17836;50.948;3.946;2023-06-14T06:18:01;6.37;;;5.13;;
31210;SDS011;17836;50.948;3.946;2023-06-14T06:20:26;8.63;;;5.73;;
31210;SDS011;17836;50.948;3.946;2023-06-14T06:22:53;9.57;;;4.93;;
31210;SDS011;17836;50.948;3.946;2023-06-14T06:25:19;5.35;;;4.85;;
31210;SDS011;17836;50.948;3.946;2023-06-14T06:27:44;6.07;;;5.57;;
31210;SDS011;17836;50.948;3.946;2023-06-14T06:30:10;6.15;;;5.30;;
31210;SDS011;17836;50.948;3.946;2023-06-14T06:32:38;7.68;;;5.20;;
31210;SDS011;17836;50.948;3.946;2023-06-14T06:35:03;7.03;;;5.00;;
31210;SDS011;17836;50.948;3.946;2023-06-14T06:37:31;5.50;;;4.85;;
31210;SDS011;17836;50.948;3.946;2023-06-14T06:39:58;5.88;;;5.38;;
31210;SDS011;17836;50.948;3.946;2023-06-14T06:42:23;7.33;;;5.70;;
31210;SDS011;17836;50.948;3.946;2023-06-14T06:44:49;11.18;;;5.35;;
31210;SDS011;17836;50.948;3.946;2023-06-14T06:47:14;5.13;;;4.63;;
31210;SDS011;17836;50.948;3.946;2023-06-14T06:49:42;7.53;;;5.43;;
31210;SDS011;17836;50.948;3.946;2023-06-14T06:52:07;6.13;;;4.87;;
31210;SDS011;17836;50.948;3.946;2023-06-14T06:54:33;5.45;;;4.95;;
31210;SDS011;17836;50.948;3.946;2023-06-14T06:56:59;6.88;;;5.80;;
31210;SDS011;17836;50.948;3.946;2023-06-14T06:59:25;7.10;;;4.80;;
31210;SDS011;17836;50.948;3.946;2023-06-14T07:01:50;8.77;;;5.03;;
31210;SDS011;17836;50.948;3.946;2023-06-14T07:04:15;9.17;;;5.17;;
31210;SDS011;17836;50.948;3.946;2023-06-14T07:06:41;4.60;;;4.20;;
31210;SDS011;17836;50.948;3.946;2023-06-14T07:09:06;6.22;;;5.28;;
31210;SDS011;17836;50.948;3.946;2023-06-14T07:14:02;5.38;;;4.80;;
31210;SDS011;17836;50.948;3.946;2023-06-14T07:16:27;12.43;;;5.80;;
31210;SDS011;17836;50.948;3.946;2023-06-14T07:18:53;10.10;;;4.63;;
31210;SDS011;17836;50.948;3.946;2023-06-14T07:21:18;9.23;;;5.20;;
31210;SDS011;17836;50.948;3.946;2023-06-14T07:23:43;6.03;;;4.37;;
31210;SDS011;17836;50.948;3.946;2023-06-14T07:26:08;9.90;;;5.50;;
31210;SDS011;17836;50.948;3.946;2023-06-14T07:28:34;7.33;;;6.13;;
31210;SDS011;17836;50.948;3.946;2023-06-14T07:31:01;7.20;;;6.33;;
31210;SDS011;17836;50.948;3.946;2023-06-14T07:33:27;9.50;;;4.70;;
31210;SDS011;17836;50.948;3.946;2023-06-14T07:35:53;7.25;;;5.30;;
31210;SDS011;17836;50.948;3.946;2023-06-14T07:38:18;5.70;;;5.10;;
31210;SDS011;17836;50.948;3.946;2023-06-14T07:40:43;5.45;;;4.82;;
31210;SDS011;17836;50.948;3.946;2023-06-14T07:43:09;6.30;;;5.37;;
31210;SDS011;17836;50.948;3.946;2023-06-14T07:45:34;7.10;;;5.35;;
31210;SDS011;17836;50.948;3.946;2023-06-14T07:47:59;6.53;;;4.68;;
31210;SDS011;17836;50.948;3.946;2023-06-14T07:50:25;6.85;;;4.85;;
31210;SDS011;17836;50.948;3.946;2023-06-14T07:52:50;8.63;;;5.23;;
31210;SDS011;17836;50.948;3.946;2023-06-14T07:55:15;7.30;;;5.33;;
31210;SDS011;17836;50.948;3.946;2023-06-14T07:57:41;8.65;;;6.20;;
31210;SDS011;17836;50.948;3.946;2023-06-14T08:00:07;6.55;;;4.60;;
31210;SDS011;17836;50.948;3.946;2023-06-14T08:02:33;5.90;;;5.20;;
31210;SDS011;17836;50.948;3.946;2023-06-14T08:04:58;5.63;;;5.13;;
31210;SDS011;17836;50.948;3.946;2023-06-14T08:07:24;8.90;;;4.70;;
31210;SDS011;17836;50.948;3.946;2023-06-14T08:09:49;6.85;;;5.03;;
31210;SDS011;17836;50.948;3.946;2023-06-14T08:12:14;5.50;;;4.55;;
31210;SDS011;17836;50.948;3.946;2023-06-14T08:14:41;7.70;;;4.70;;
31210;SDS011;17836;50.948;3.946;2023-06-14T08:17:07;7.38;;;5.30;;
31210;SDS011;17836;50.948;3.946;2023-06-14T08:19:32;5.33;;;4.60;;
31210;SDS011;17836;50.948;3.946;2023-06-14T08:22:00;7.50;;;4.93;;
31210;SDS011;17836;50.948;3.946;2023-06-14T08:24:26;7.55;;;4.40;;
31210;SDS011;17836;50.948;3.946;2023-06-14T08:26:54;7.15;;;4.72;;
31210;SDS011;17836;50.948;3.946;2023-06-14T08:29:19;8.23;;;4.20;;
31210;SDS011;17836;50.948;3.946;2023-06-14T08:31:44;8.20;;;4.05;;
31210;SDS011;17836;50.948;3.946;2023-06-14T08:34:10;5.93;;;3.90;;
31210;SDS011;17836;50.948;3.946;2023-06-14T08:36:35;6.35;;;4.28;;
31210;SDS011;17836;50.948;3.946;2023-06-14T08:39:01;6.23;;;4.30;;
31210;SDS011;17836;50.948;3.946;2023-06-14T08:41:29;4.13;;;3.63;;
31210;SDS011;17836;50.948;3.946;2023-06-14T08:43:55;5.07;;;4.38;;
31210;SDS011;17836;50.948;3.946;2023-06-14T08:46:20;8.30;;;4.07;;
31210;SDS011;17836;50.948;3.946;2023-06-14T08:48:47;7.78;;;3.85;;
31210;SDS011;17836;50.948;3.946;2023-06-14T08:51:13;5.43;;;3.92;;
31210;SDS011;17836;50.948;3.946;2023-06-14T08:53:41;7.45;;;4.20;;
31210;SDS011;17836;50.948;3.946;2023-06-14T08:56:07;6.03;;;3.58;;
31210;SDS011;17836;50.948;3.946;2023-06-14T08:58:38;4.13;;;3.80;;
31210;SDS011;17836;50.948;3.946;2023-06-14T09:01:08;4.55;;;4.15;;
31210;SDS011;17836;50.948;3.946;2023-06-14T09:03:34;6.60;;;3.85;;
31210;SDS011;17836;50.948;3.946;2023-06-14T09:05:59;5.03;;;3.78;;
31210;SDS011;17836;50.948;3.946;2023-06-14T09:08:26;5.72;;;4.25;;
31210;SDS011;17836;50.948;3.946;2023-06-14T09:10:55;8.50;;;4.07;;
31210;SDS011;17836;50.948;3.946;2023-06-14T09:13:20;9.53;;;4.00;;
31210;SDS011;17836;50.948;3.946;2023-06-14T09:15:45;8.63;;;4.53;;
31210;SDS011;17836;50.948;3.946;2023-06-14T09:18:11;5.17;;;4.23;;
31210;SDS011;17836;50.948;3.946;2023-06-14T09:20:36;8.23;;;4.10;;
31210;SDS011;17836;50.948;3.946;2023-06-14T09:23:02;8.60;;;4.10;;
31210;SDS011;17836;50.948;3.946;2023-06-14T09:25:29;7.65;;;4.05;;
31210;SDS011;17836;50.948;3.946;2023-06-14T09:27:54;7.40;;;3.80;;
31210;SDS011;17836;50.948;3.946;2023-06-14T09:30:20;4.33;;;3.87;;
31210;SDS011;17836;50.948;3.946;2023-06-14T09:32:46;6.15;;;3.83;;
31210;SDS011;17836;50.948;3.946;2023-06-14T09:35:15;8.52;;;4.32;;
31210;SDS011;17836;50.948;3.946;2023-06-14T09:37:42;7.38;;;4.20;;
31210;SDS011;17836;50.948;3.946;2023-06-14T09:40:07;7.33;;;3.80;;
31210;SDS011;17836;50.948;3.946;2023-06-14T09:42:33;13.90;;;3.83;;
31210;SDS011;17836;50.948;3.946;2023-06-14T09:45:00;4.78;;;4.10;;
31210;SDS011;17836;50.948;3.946;2023-06-14T09:47:26;6.93;;;3.40;;
31210;SDS011;17836;50.948;3.946;2023-06-14T09:49:52;5.30;;;3.87;;
31210;SDS011;17836;50.948;3.946;2023-06-14T09:52:20;4.63;;;3.97;;
31210;SDS011;17836;50.948;3.946;2023-06-14T09:54:46;6.65;;;3.72;;
31210;SDS011;17836;50.948;3.946;2023-06-14T09:57:12;5.45;;;4.35;;
31210;SDS011;17836;50.948;3.946;2023-06-14T09:59:47;5.72;;;4.25;;
31210;SDS011;17836;50.948;3.946;2023-06-14T10:02:24;8.20;;;4.45;;
31210;SDS011;17836;50.948;3.946;2023-06-14T10:05:02;6.00;;;3.95;;
31210;SDS011;17836;50.948;3.946;2023-06-14T10:07:30;5.55;;;3.97;;
31210;SDS011;17836;50.948;3.946;2023-06-14T10:09:59;6.07;;;4.03;;
31210;SDS011;17836;50.948;3.946;2023-06-14T10:12:25;5.43;;;4.10;;
31210;SDS011;17836;50.948;3.946;2023-06-14T10:14:52;4.50;;;3.65;;
31210;SDS011;17836;50.948;3.946;2023-06-14T10:17:32;7.55;;;4.65;;
31210;SDS011;17836;50.948;3.946;2023-06-14T10:20:03;7.63;;;4.60;;
31210;SDS011;17836;50.948;3.946;2023-06-14T10:22:40;6.90;;;4.10;;
31210;SDS011;17836;50.948;3.946;2023-06-14T10:25:12;6.85;;;4.13;;
31210;SDS011;17836;50.948;3.946;2023-06-14T10:27:38;10.20;;;4.72;;
31210;SDS011;17836;50.948;3.946;2023-06-14T10:30:07;10.75;;;4.82;;
31210;SDS011;17836;50.948;3.946;2023-06-14T10:32:33;7.15;;;4.65;;
31210;SDS011;17836;50.948;3.946;2023-06-14T10:37:23;5.57;;;4.20;;
31210;SDS011;17836;50.948;3.946;2023-06-14T10:39:51;9.35;;;4.18;;
31210;SDS011;17836;50.948;3.946;2023-06-14T10:42:18;6.65;;;4.00;;
31210;SDS011;17836;50.948;3.946;2023-06-14T10:44:57;7.57;;;4.70;;
31210;SDS011;17836;50.948;3.946;2023-06-14T10:49:53;5.13;;;4.18;;
31210;SDS011;17836;50.948;3.946;2023-06-14T10:52:23;4.28;;;3.83;;
31210;SDS011;17836;50.948;3.946;2023-06-14T10:57:26;6.07;;;4.40;;
31210;SDS011;17836;50.948;3.946;2023-06-14T10:59:59;8.77;;;4.00;;
31210;SDS011;17836;50.948;3.946;2023-06-14T11:05:10;4.43;;;4.03;;
31210;SDS011;17836;50.948;3.946;2023-06-14T11:12:36;6.70;;;4.43;;
31210;SDS011;17836;50.948;3.946;2023-06-14T11:15:01;5.75;;;3.88;;
31210;SDS011;17836;50.948;3.946;2023-06-14T11:17:27;17.95;;;4.00;;
31210;SDS011;17836;50.948;3.946;2023-06-14T11:20:11;4.05;;;3.63;;
31210;SDS011;17836;50.948;3.946;2023-06-14T11:22:46;5.97;;;3.75;;
31210;SDS011;17836;50.948;3.946;2023-06-14T11:25:12;4.57;;;4.03;;
31210;SDS011;17836;50.948;3.946;2023-06-14T11:27:37;5.63;;;3.85;;
31210;SDS011;17836;50.948;3.946;2023-06-14T11:30:06;5.00;;;3.67;;
31210;SDS011;17836;50.948;3.946;2023-06-14T11:32:32;5.57;;;4.03;;
31210;SDS011;17836;50.948;3.946;2023-06-14T11:34:59;6.03;;;4.32;;
31210;SDS011;17836;50.948;3.946;2023-06-14T11:37:25;6.18;;;4.60;;
31210;SDS011;17836;50.948;3.946;2023-06-14T11:39:55;8.70;;;4.10;;
31210;SDS011;17836;50.948;3.946;2023-06-14T11:44:49;3.88;;;3.58;;
31210;SDS011;17836;50.948;3.946;2023-06-14T11:47:15;3.90;;;3.20;;
31210;SDS011;17836;50.948;3.946;2023-06-14T11:49:40;3.70;;;3.40;;
31210;SDS011;17836;50.948;3.946;2023-06-14T11:52:07;4.93;;;3.80;;
31210;SDS011;17836;50.948;3.946;2023-06-14T11:54:32;4.38;;;3.67;;
31210;SDS011;17836;50.948;3.946;2023-06-14T11:56:58;3.97;;;3.47;;
31210;SDS011;17836;50.948;3.946;2023-06-14T11:59:23;6.57;;;3.63;;
31210;SDS011;17836;50.948;3.946;2023-06-14T12:01:49;4.18;;;3.70;;
31210;SDS011;17836;50.948;3.946;2023-06-14T12:04:14;4.43;;;4.00;;
31210;SDS011;17836;50.948;3.946;2023-06-14T12:06:42;4.13;;;3.63;;
31210;SDS011;17836;50.948;3.946;2023-06-14T12:09:08;6.75;;;3.50;;
31210;SDS011;17836;50.948;3.946;2023-06-14T12:11:39;7.97;;;3.92;;
31210;SDS011;17836;50.948;3.946;2023-06-14T12:14:05;4.13;;;3.75;;
31210;SDS011;17836;50.948;3.946;2023-06-14T12:16:31;4.40;;;3.95;;
31210;SDS011;17836;50.948;3.946;2023-06-14T12:21:53;5.40;;;3.47;;
31210;SDS011;17836;50.948;3.946;2023-06-14T12:24:21;4.03;;;3.72;;
31210;SDS011;17836;50.948;3.946;2023-06-14T12:26:46;7.43;;;3.27;;
31210;SDS011;17836;50.948;3.946;2023-06-14T12:29:12;4.75;;;3.67;;
31210;SDS011;17836;50.948;3.946;2023-06-14T12:31:37;4.90;;;3.08;;
31210;SDS011;17836;50.948;3.946;2023-06-14T12:34:05;4.07;;;2.95;;
31210;SDS011;17836;50.948;3.946;2023-06-14T12:36:30;6.33;;;3.90;;
31210;SDS011;17836;50.948;3.946;2023-06-14T12:38:56;5.78;;;3.50;;
31210;SDS011;17836;50.948;3.946;2023-06-14T12:41:22;4.15;;;3.25;;
31210;SDS011;17836;50.948;3.946;2023-06-14T12:43:47;7.00;;;3.13;;
31210;SDS011;17836;50.948;3.946;2023-06-14T12:46:13;3.25;;;2.83;;
31210;SDS011;17836;50.948;3.946;2023-06-14T12:48:38;3.73;;;3.00;;
31210;SDS011;17836;50.948;3.946;2023-06-14T12:51:05;5.47;;;2.97;;
31210;SDS011;17836;50.948;3.946;2023-06-14T12:53:31;5.32;;;3.72;;
31210;SDS011;17836;50.948;3.946;2023-06-14T12:55:56;4.57;;;3.13;;
31210;SDS011;17836;50.948;3.946;2023-06-14T12:58:21;3.40;;;3.10;;
31210;SDS011;17836;50.948;3.946;2023-06-14T13:00:48;3.53;;;3.08;;
31210;SDS011;17836;50.948;3.946;2023-06-14T13:03:16;8.18;;;3.28;;
31210;SDS011;17836;50.948;3.946;2023-06-14T13:05:44;4.47;;;2.92;;
31210;SDS011;17836;50.948;3.946;2023-06-14T13:08:09;5.70;;;3.47;;
31210;SDS011;17836;50.948;3.946;2023-06-14T13:10:37;4.85;;;3.13;;
31210;SDS011;17836;50.948;3.946;2023-06-14T13:13:02;6.22;;;3.22;;
31210;SDS011;17836;50.948;3.946;2023-06-14T13:15:28;7.65;;;3.20;;
31210;SDS011;17836;50.948;3.946;2023-06-14T13:17:54;6.70;;;3.25;;
31210;SDS011;17836;50.948;3.946;2023-06-14T13:20:22;4.00;;;2.65;;
31210;SDS011;17836;50.948;3.946;2023-06-14T13:22:48;5.50;;;3.42;;
31210;SDS011;17836;50.948;3.946;2023-06-14T13:25:13;6.90;;;3.30;;
31210;SDS011;17836;50.948;3.946;2023-06-14T13:27:38;4.50;;;3.03;;
31210;SDS011;17836;50.948;3.946;2023-06-14T13:30:04;6.43;;;3.07;;
31210;SDS011;17836;50.948;3.946;2023-06-14T13:32:30;5.50;;;2.83;;
31210;SDS011;17836;50.948;3.946;2023-06-14T13:34:56;3.55;;;3.25;;
31210;SDS011;17836;50.948;3.946;2023-06-14T13:37:21;4.15;;;2.97;;
31210;SDS011;17836;50.948;3.946;2023-06-14T13:39:46;4.83;;;3.13;;
31210;SDS011;17836;50.948;3.946;2023-06-14T13:42:12;8.37;;;3.27;;
31210;SDS011;17836;50.948;3.946;2023-06-14T13:44:37;4.83;;;2.97;;
31210;SDS011;17836;50.948;3.946;2023-06-14T13:47:04;7.47;;;3.37;;
31210;SDS011;17836;50.948;3.946;2023-06-14T13:49:32;3.73;;;2.57;;
31210;SDS011;17836;50.948;3.946;2023-06-14T13:52:00;7.50;;;3.17;;
31210;SDS011;17836;50.948;3.946;2023-06-14T13:54:25;4.20;;;2.80;;
31210;SDS011;17836;50.948;3.946;2023-06-14T13:56:51;3.95;;;2.92;;
31210;SDS011;17836;50.948;3.946;2023-06-14T13:59:16;9.17;;;3.23;;
31210;SDS011;17836;50.948;3.946;2023-06-14T14:01:42;4.00;;;3.10;;
31210;SDS011;17836;50.948;3.946;2023-06-14T14:04:07;4.88;;;2.90;;
31210;SDS011;17836;50.948;3.946;2023-06-14T14:06:33;5.10;;;3.50;;
31210;SDS011;17836;50.948;3.946;2023-06-14T14:08:58;7.17;;;3.20;;
31210;SDS011;17836;50.948;3.946;2023-06-14T14:11:24;6.88;;;3.35;;
31210;SDS011;17836;50.948;3.946;2023-06-14T14:13:49;4.70;;;2.60;;
31210;SDS011;17836;50.948;3.946;2023-06-14T14:16:14;4.67;;;3.13;;
31210;SDS011;17836;50.948;3.946;2023-06-14T14:18:40;5.30;;;3.03;;
31210;SDS011;17836;50.948;3.946;2023-06-14T14:21:05;6.13;;;2.80;;
31210;SDS011;17836;50.948;3.946;2023-06-14T14:23:30;4.18;;;3.40;;
31210;SDS011;17836;50.948;3.946;2023-06-14T14:25:56;6.10;;;3.00;;
31210;SDS011;17836;50.948;3.946;2023-06-14T14:28:21;6.07;;;3.10;;
31210;SDS011;17836;50.948;3.946;2023-06-14T14:30:47;3.20;;;2.60;;
31210;SDS011;17836;50.948;3.946;2023-06-14T14:33:12;10.88;;;2.80;;
31210;SDS011;17836;50.948;3.946;2023-06-14T14:35:41;4.57;;;2.53;;
31210;SDS011;17836;50.948;3.946;2023-06-14T14:38:06;3.05;;;2.67;;
31210;SDS011;17836;50.948;3.946;2023-06-14T14:40:32;4.00;;;2.57;;
31210;SDS011;17836;50.948;3.946;2023-06-14T14:42:57;6.07;;;2.30;;
31210;SDS011;17836;50.948;3.946;2023-06-14T14:45:22;2.80;;;2.37;;
31210;SDS011;17836;50.948;3.946;2023-06-14T14:47:47;4.43;;;2.53;;
31210;SDS011;17836;50.948;3.946;2023-06-14T14:50:13;4.53;;;2.37;;
31210;SDS011;17836;50.948;3.946;2023-06-14T14:52:40;4.55;;;1.98;;
31210;SDS011;17836;50.948;3.946;2023-06-14T14:55:06;4.57;;;2.65;;
31210;SDS011;17836;50.948;3.946;2023-06-14T14:57:31;5.00;;;2.47;;
31210;SDS011;17836;50.948;3.946;2023-06-14T14:59:58;5.07;;;2.30;;
31210;SDS011;17836;50.948;3.946;2023-06-14T15:02:24;2.50;;;2.00;;
31210;SDS011;17836;50.948;3.946;2023-06-14T15:04:49;3.60;;;2.53;;
31210;SDS011;17836;50.948;3.946;2023-06-14T15:07:14;2.13;;;1.85;;